Airfield :
LOGIN :

Register | Disclaimer

   EN    FR    IT 

 










Legend :    VFR   Marginal VFR   IFR   Intensive IFR   Very Intensive IFR
Visi :
Ceiling :
>= 8 km
>= 3000ft
5 to 8 km
1000 to 3000 ft
1500m to 5 km
500 to 1000 ft
800 to 1500m
200 to 500 ft
< 800m
< 200 ft
Symbols :   Thunderstorms  Fog  Heavy snow  Heavy precipitations  Wind > 20 kt
SIGMETs :     Misc.  Thunderstorms  Icing  Turbulence  Mountain Waves  Volcanic Ashes







- Airport Elevation : 1411 ft
- IATA code : GVA


LSGG - Genève Cointrin

CURRENT METAR :
  • 220020Z AUTO VRB01KT 3200 BR NCD 16/15 Q1015 NOSIG

EXPIRED METARs :
  • 212350Z AUTO 30001KT 3000 BR NCD 16/16 Q1015 TEMPO 1500 MIFG
  • 212320Z AUTO 10001KT 1000 R05/1500D R23/1100D BR NCD 17/16 Q1015 TEMPO 1500 MIFG
  • 212250Z AUTO VRB01KT CAVOK 17/16 Q1015 NOSIG
  • 212220Z AUTO VRB02KT 9999 NCD 17/16 Q1015 NOSIG
  • 212150Z AUTO 30002KT 8000 NCD 18/16 Q1015 NOSIG

TAF TAF LSGG
Valid from the 22 at 00:00 until the 23 at 06:00 UTC


212325Z 2200/2306 VRB03KT 8000 NSC TX28/2215Z TN16/2204Z TN18/2304Z
PROB40
TEMPO 2200/2204 1500 MIFG
BECMG 2208/2210 9999 FEW050 FEW050TCU
TEMPO 2215/2222 23015G25KT 4000 TSRA FEW030 SCT040CB BKN050
BECMG 2222/2224 SCT050
ATIS : +41 22 417 40 81
No reported NOTAMs for that airfield.



MET'MAP, your aeronautical weather chart ! - Copyright ORBIFLY December 2007 - Disclaimer

ORBIFLY MET'MAP TEAM :

Programming & Development : Alexandra Zaïnal
Concept & Development : Baudouin d'Aumeries
Co-Development & Prog : Marc-Olivier Méhu
Technical & hardware support : Manuel Goepfert

Contact : metmap@orbifly.com




SOURCES & CREDITS :

   NOAA